createdAt,value
2019-06-01T00:02:19.153Z,100976.59
2019-06-01T00:04:49.456Z,100959.34
2019-06-01T00:07:19.320Z,100959.22
2019-06-01T00:09:49.681Z,100956.14
2019-06-01T00:12:19.543Z,100960.27
2019-06-01T00:14:50.022Z,100948.77
2019-06-01T00:17:20.013Z,100940.22
2019-06-01T00:19:50.373Z,100933.09
2019-06-01T00:22:20.116Z,100937.59
2019-06-01T00:24:50.132Z,100941.22
2019-06-01T00:27:19.978Z,100936.55
2019-06-01T00:29:49.817Z,100935.28
2019-06-01T00:32:19.695Z,100942.71
2019-06-01T00:34:49.920Z,100947.58
2019-06-01T00:37:19.540Z,100952.94
2019-06-01T00:39:49.933Z,100948.55
2019-06-01T00:42:19.555Z,100955.98
2019-06-01T00:44:50.461Z,100961.93
2019-06-01T00:47:20.360Z,100967.27
2019-06-01T00:49:51.093Z,100964.88
2019-06-01T00:52:21.079Z,100967.95
2019-06-01T00:54:51.669Z,100968.91
2019-06-01T00:57:22.191Z,100961.13
2019-06-01T00:59:53.675Z,100968.88
2019-06-01T01:02:24.183Z,100966.64
2019-06-01T01:05:12.554Z,100973.67
2019-06-01T01:07:42.621Z,100976.55
2019-06-01T01:10:12.621Z,100969.52
2019-06-01T01:13:00.643Z,100965.20
2019-06-01T01:15:30.539Z,100958.71
2019-06-01T01:18:00.502Z,100968.41
2019-06-01T01:20:30.354Z,100978.06
2019-06-01T01:23:00.220Z,100971.04
2019-06-01T01:25:31.396Z,100973.55
2019-06-01T01:28:01.166Z,100961.41
2019-06-01T01:30:30.907Z,100967.62
2019-06-01T01:33:00.739Z,100964.66
2019-06-01T01:35:30.430Z,100960.26
2019-06-01T01:38:00.429Z,100961.82
2019-06-01T01:40:30.475Z,100958.15
2019-06-01T01:43:00.292Z,100958.06
2019-06-01T01:45:30.198Z,100949.03
2019-06-01T01:48:01.438Z,100951.77
2019-06-01T01:50:31.575Z,100948.70
2019-06-01T01:53:01.386Z,100945.96
2019-06-01T01:55:31.358Z,100945.94
2019-06-01T01:58:01.688Z,100943.80
2019-06-01T02:00:38.346Z,100948.78
2019-06-01T02:03:08.124Z,100953.66
2019-06-01T02:05:37.908Z,100954.97
2019-06-01T02:08:08.285Z,100954.03
2019-06-01T02:10:39.001Z,100955.67
2019-06-01T02:13:09.193Z,100960.55
2019-06-01T02:15:41.290Z,100961.59
2019-06-01T02:18:11.424Z,100958.03
2019-06-01T02:20:41.440Z,100971.72
2019-06-01T02:23:11.266Z,100962.41
2019-06-01T02:25:41.646Z,100968.00
2019-06-01T02:28:11.964Z,100962.22
2019-06-01T02:30:41.860Z,100969.14
2019-06-01T02:33:11.739Z,100978.20
2019-06-01T02:35:41.654Z,100978.92
2019-06-01T02:38:11.745Z,100980.22
2019-06-01T02:40:41.896Z,100985.08
2019-06-01T02:43:11.679Z,100989.95
2019-06-01T02:45:41.660Z,100996.87
2019-06-01T02:48:11.540Z,101004.37
2019-06-01T02:50:41.358Z,100999.35
2019-06-01T02:53:11.329Z,101005.44
2019-06-01T02:55:41.291Z,101009.13
2019-06-01T02:58:11.219Z,101011.15
2019-06-01T03:01:21.829Z,101012.70
2019-06-01T03:03:54.098Z,101019.58
2019-06-01T03:06:24.609Z,101023.75
2019-06-01T03:08:57.714Z,101019.59
2019-06-01T03:11:29.746Z,101024.57
2019-06-01T03:14:00.691Z,101034.45
2019-06-01T03:16:31.338Z,101033.75
2019-06-01T03:19:03.611Z,101046.32
2019-06-01T03:21:34.449Z,101052.86
2019-06-01T03:24:10.292Z,101056.53
2019-06-01T03:26:43.502Z,101066.05
2019-06-01T03:29:19.633Z,101068.67
2019-06-01T03:31:49.576Z,101071.41
2019-06-01T03:34:19.251Z,101072.63
2019-06-01T03:36:49.062Z,101067.05
2019-06-01T03:39:19.625Z,101069.45
2019-06-01T03:41:49.512Z,101071.00
2019-06-01T03:44:19.362Z,101075.97
2019-06-01T03:46:49.088Z,101069.91
2019-06-01T03:49:18.879Z,101072.06
2019-06-01T03:51:48.797Z,101070.98
2019-06-01T03:54:18.766Z,101070.11
2019-06-01T03:56:48.496Z,101072.91
2019-06-01T03:59:18.319Z,101076.45
2019-06-01T04:01:48.401Z,101074.73
2019-06-01T04:04:18.059Z,101076.40
2019-06-01T04:06:47.917Z,101082.92
2019-06-01T04:09:17.964Z,101085.58
2019-06-01T04:11:47.721Z,101082.88
2019-06-01T04:14:17.517Z,101082.20
2019-06-01T04:16:47.481Z,101085.68
2019-06-01T04:19:17.524Z,101082.23
2019-06-01T04:21:47.267Z,101083.06
2019-06-01T04:24:17.153Z,101083.05
2019-06-01T04:26:47.046Z,101083.05
2019-06-01T04:29:17.037Z,101094.75
2019-06-01T04:31:47.007Z,101095.41
2019-06-01T04:34:16.774Z,101102.02
2019-06-01T04:36:46.678Z,101105.25
2019-06-01T04:39:17.349Z,101096.77
2019-06-01T04:41:47.129Z,101103.20
2019-06-01T04:44:18.374Z,101102.25
2019-06-01T04:46:48.204Z,101102.39
2019-06-01T04:49:18.112Z,101104.87
2019-06-01T04:51:48.044Z,101101.98
2019-06-01T04:54:17.931Z,101104.78
2019-06-01T04:56:47.834Z,101100.45
2019-06-01T04:59:17.602Z,101109.36
2019-06-01T05:01:47.365Z,101099.77
2019-06-01T05:04:18.440Z,101107.44
2019-06-01T05:06:48.262Z,101107.16
2019-06-01T05:09:18.134Z,101110.80
2019-06-01T05:11:47.949Z,101106.00
2019-06-01T05:14:17.677Z,101101.89
2019-06-01T05:16:47.505Z,101105.70
2019-06-01T05:19:17.467Z,101107.50
2019-06-01T05:21:47.339Z,101102.88
2019-06-01T05:24:17.333Z,101100.78
2019-06-01T05:26:47.301Z,101095.71
2019-06-01T05:29:18.103Z,101103.09
2019-06-01T05:31:48.131Z,101103.09
2019-06-01T05:34:18.344Z,101107.08
2019-06-01T05:36:48.582Z,101114.75
2019-06-01T05:39:18.855Z,101110.75
2019-06-01T05:41:49.621Z,101104.30
2019-06-01T05:44:19.503Z,101116.30
2019-06-01T05:46:49.421Z,101120.36
2019-06-01T05:49:19.193Z,101112.59
2019-06-01T05:51:49.111Z,101110.39
2019-06-01T05:54:19.031Z,101116.77
2019-06-01T05:56:49.002Z,101117.45
2019-06-01T05:59:18.839Z,101117.05
2019-06-01T06:01:48.601Z,101126.13
2019-06-01T06:04:19.515Z,101124.48
2019-06-01T06:06:51.642Z,101128.75
2019-06-01T06:09:21.369Z,101125.09
2019-06-01T06:11:53.800Z,101116.59
2019-06-01T06:14:22.963Z,101116.03
2019-06-01T06:16:52.885Z,101111.95
2019-06-01T06:19:23.807Z,101117.53
2019-06-01T06:21:53.744Z,101117.53
2019-06-01T06:24:23.676Z,101113.88
2019-06-01T06:26:54.858Z,101110.21
2019-06-01T06:29:24.712Z,101108.20
2019-06-01T06:31:54.569Z,101107.41
2019-06-01T06:34:24.365Z,101107.52
2019-06-01T06:36:54.271Z,101107.27
2019-06-01T06:39:24.293Z,101107.05
2019-06-01T06:41:53.999Z,101095.71
2019-06-01T06:44:24.798Z,101097.45
2019-06-01T06:46:54.682Z,101098.05
2019-06-01T06:49:25.345Z,101083.98
2019-06-01T06:51:55.267Z,101082.71
2019-06-01T06:54:26.005Z,101090.39
2019-06-01T06:56:55.809Z,101087.38
2019-06-01T06:59:26.795Z,101088.49
2019-06-01T07:01:56.625Z,101089.38
2019-06-01T07:04:27.487Z,101092.13
2019-06-01T07:06:57.252Z,101096.64
2019-06-01T07:09:28.223Z,101092.08
2019-06-01T07:11:58.067Z,101092.50
2019-06-01T07:14:27.936Z,101088.02
2019-06-01T07:16:57.731Z,101094.31
2019-06-01T07:19:27.920Z,101097.59
2019-06-01T07:21:57.882Z,101095.41
2019-06-01T07:24:28.178Z,101096.98
2019-06-01T07:26:57.956Z,101091.48
2019-06-01T07:29:28.401Z,101088.34
2019-06-01T07:31:58.384Z,101085.46
2019-06-01T07:34:37.745Z,101086.62
2019-06-01T07:37:00.963Z,101086.59
2019-06-01T07:39:30.757Z,101085.69
2019-06-01T07:42:01.984Z,101087.59
2019-06-01T07:44:33.144Z,101090.08
2019-06-01T07:47:04.663Z,101086.48
2019-06-01T07:49:34.727Z,101086.05
2019-06-01T07:52:12.745Z,101086.58
2019-06-01T07:54:35.924Z,101086.16
2019-06-01T07:57:06.192Z,101083.44
2019-06-01T07:59:35.966Z,101074.91
2019-06-01T08:02:05.971Z,101079.84
2019-06-01T08:04:52.491Z,101084.13
2019-06-01T08:07:08.450Z,101083.31
2019-06-01T08:09:38.117Z,101081.87
2019-06-01T08:12:07.951Z,101086.11
2019-06-01T08:14:37.822Z,101081.50
2019-06-01T08:17:07.620Z,101081.45
2019-06-01T08:19:37.374Z,101080.52
2019-06-01T08:22:07.468Z,101080.50
2019-06-01T08:24:37.286Z,101081.88
2019-06-01T08:27:08.435Z,101081.65
2019-06-01T08:29:38.255Z,101075.39
2019-06-01T08:32:07.945Z,101079.56
2019-06-01T08:34:37.799Z,101078.38
2019-06-01T08:37:08.523Z,101076.53
2019-06-01T08:39:38.712Z,101077.97
2019-06-01T08:42:08.620Z,101073.39
2019-06-01T08:44:38.573Z,101083.74
2019-06-01T08:47:08.368Z,101082.66
2019-06-01T08:49:38.547Z,101086.49
2019-06-01T08:52:08.431Z,101085.02
2019-06-01T08:54:38.228Z,101082.92
2019-06-01T08:57:09.612Z,101083.81
2019-06-01T08:59:39.516Z,101086.52
2019-06-01T09:02:09.752Z,101085.48
2019-06-01T09:04:39.450Z,101081.36
2019-06-01T09:07:09.202Z,101074.24
2019-06-01T09:09:39.072Z,101073.20
2019-06-01T09:12:08.990Z,101080.20
2019-06-01T09:14:39.347Z,101077.63
2019-06-01T09:17:09.011Z,101076.58
2019-06-01T09:19:38.782Z,101073.17
2019-06-01T09:22:08.756Z,101077.63
2019-06-01T09:24:38.546Z,101075.52
2019-06-01T09:27:08.305Z,101079.47
2019-06-01T09:29:38.076Z,101064.92
2019-06-01T09:32:10.791Z,101076.32
2019-06-01T09:34:39.484Z,101067.84
2019-06-01T09:37:09.388Z,101057.70
2019-06-01T09:39:39.385Z,101059.84
2019-06-01T09:42:09.324Z,101061.33
2019-06-01T09:44:39.258Z,101056.36
2019-06-01T09:47:10.458Z,101055.81
2019-06-01T09:49:40.072Z,101053.67
2019-06-01T09:52:12.557Z,101052.38
2019-06-01T09:54:41.229Z,101047.39
2019-06-01T09:57:11.075Z,101043.58
2019-06-01T09:59:40.916Z,101045.57
2019-06-01T10:02:11.378Z,101043.18
2019-06-01T10:04:41.837Z,101048.98
2019-06-01T10:07:11.704Z,101040.45
2019-06-01T10:09:42.203Z,101041.17
2019-06-01T10:12:12.017Z,101032.31
2019-06-01T10:14:42.792Z,101033.26
2019-06-01T10:17:12.671Z,101030.61
2019-06-01T10:19:43.030Z,101035.91
2019-06-01T10:22:12.739Z,101035.89
2019-06-01T10:24:42.490Z,101026.16
2019-06-01T10:27:12.212Z,101030.92
2019-06-01T10:29:43.062Z,101028.76
2019-06-01T10:32:13.078Z,101031.36
2019-06-01T10:34:42.889Z,101031.03
2019-06-01T10:37:13.953Z,101032.05
2019-06-01T10:39:43.858Z,101026.41
2019-06-01T10:42:13.558Z,101027.13
2019-06-01T10:44:45.721Z,101030.82
2019-06-01T10:47:15.099Z,101028.08
2019-06-01T10:49:45.029Z,101025.89
2019-06-01T10:52:14.654Z,101028.78
2019-06-01T10:54:44.416Z,101027.19
2019-06-01T10:57:14.261Z,101013.48
2019-06-01T10:59:44.127Z,101028.71
2019-06-01T11:02:13.944Z,101026.03
2019-06-01T11:04:43.898Z,101022.66
2019-06-01T11:07:13.767Z,101019.63
2019-06-01T11:09:43.564Z,101018.95
2019-06-01T11:12:13.452Z,101024.02
2019-06-01T11:14:43.532Z,101012.66
2019-06-01T11:17:13.331Z,101024.80
2019-06-01T11:19:44.491Z,101014.09
2019-06-01T11:22:14.374Z,101017.36
2019-06-01T11:24:44.222Z,101021.46
2019-06-01T11:27:13.972Z,101021.03
2019-06-01T11:29:50.827Z,101023.67
2019-06-01T11:32:15.394Z,101027.95
2019-06-01T11:34:46.580Z,101021.40
2019-06-01T11:37:16.452Z,101022.89
2019-06-01T11:39:46.294Z,101019.66
2019-06-01T11:42:19.609Z,101022.70
2019-06-01T11:44:47.730Z,101026.69
2019-06-01T11:47:17.713Z,101030.80
2019-06-01T11:49:47.472Z,101021.08
2019-06-01T11:52:17.247Z,101021.05
2019-06-01T11:54:46.866Z,101020.37
2019-06-01T11:57:16.498Z,101017.16
2019-06-01T11:59:46.325Z,101026.27
2019-06-01T12:02:16.263Z,101019.13
2019-06-01T12:04:48.601Z,101013.91
2019-06-01T12:07:18.618Z,101020.92
2019-06-01T12:09:48.455Z,101020.10
2019-06-01T12:12:18.514Z,101021.16
2019-06-01T12:14:48.394Z,101017.70
2019-06-01T12:17:18.174Z,101022.31
2019-06-01T12:19:48.136Z,101026.98
2019-06-01T12:22:17.844Z,101015.12
2019-06-01T12:24:47.625Z,101014.51
2019-06-01T12:27:18.709Z,101013.89
2019-06-01T12:29:52.444Z,101019.32
2019-06-01T12:32:21.384Z,101013.92
2019-06-01T12:34:51.191Z,101021.28
2019-06-01T12:37:36.164Z,101012.48
2019-06-01T12:39:54.412Z,101016.55
2019-06-01T12:42:24.327Z,101011.69
2019-06-01T12:44:54.044Z,101011.13
2019-06-01T12:47:23.995Z,101009.70
2019-06-01T12:49:53.760Z,101005.86
2019-06-01T12:52:23.511Z,101002.94
2019-06-01T12:54:53.303Z,101004.38
2019-06-01T12:57:23.100Z,101003.16
2019-06-01T12:59:53.238Z,101005.27
2019-06-01T13:02:23.152Z,100995.70
2019-06-01T13:04:53.271Z,100992.87
2019-06-01T13:07:23.270Z,100987.47
2019-06-01T13:09:53.414Z,100992.38
2019-06-01T13:12:23.239Z,100996.83
2019-06-01T13:14:53.044Z,100990.54
2019-06-01T13:17:24.607Z,100989.60
2019-06-01T13:19:54.414Z,100989.07
2019-06-01T13:22:25.692Z,100997.03
2019-06-01T13:24:55.560Z,100994.87
2019-06-01T13:27:29.564Z,100994.91
2019-06-01T13:29:59.742Z,100998.63
2019-06-01T13:32:30.753Z,100995.23
2019-06-01T13:35:03.807Z,100989.11
2019-06-01T13:37:33.728Z,100994.09
2019-06-01T13:40:04.280Z,100989.74
2019-06-01T13:42:35.877Z,100991.23
2019-06-01T13:45:06.280Z,100987.39
2019-06-01T13:47:36.216Z,100989.61
2019-06-01T13:50:09.458Z,100989.17
2019-06-01T13:59:41.620Z,101001.48
2019-06-01T14:02:11.734Z,100995.73
2019-06-01T14:04:47.570Z,100996.75
2019-06-01T14:14:49.273Z,101001.44
2019-06-01T14:17:19.362Z,100986.36
2019-06-01T14:19:50.169Z,100986.50
2019-06-01T14:22:20.096Z,100981.45
2019-06-01T14:25:04.340Z,100986.67
2019-06-01T14:27:21.464Z,100972.87
2019-06-01T14:29:52.338Z,100977.09
2019-06-01T14:32:22.213Z,100982.95
2019-06-01T14:34:53.300Z,100978.52
2019-06-01T14:37:23.158Z,100970.75
2019-06-01T14:39:53.082Z,100966.82
2019-06-01T14:42:22.939Z,100954.97
2019-06-01T14:44:54.001Z,100943.52
2019-06-01T14:47:23.946Z,100944.64
2019-06-01T14:49:53.983Z,100943.66
2019-06-01T14:52:23.852Z,100942.31
2019-06-01T14:54:53.831Z,100935.50
2019-06-01T14:57:23.660Z,100937.59
2019-06-01T14:59:54.217Z,100938.53
2019-06-01T15:02:24.085Z,100932.36
2019-06-01T15:04:54.359Z,100938.23
2019-06-01T15:07:24.601Z,100936.80
2019-06-01T15:09:54.356Z,100931.86
2019-06-01T15:12:24.212Z,100925.73
2019-06-01T15:14:55.440Z,100927.70
2019-06-01T15:17:25.328Z,100932.89
2019-06-01T15:19:56.195Z,100928.67
2019-06-01T15:22:26.187Z,100941.44
2019-06-01T15:24:56.479Z,100935.64
2019-06-01T15:27:26.151Z,100935.89
2019-06-01T15:29:56.942Z,100933.95
2019-06-01T15:32:26.926Z,100938.57
2019-06-01T15:34:59.851Z,100940.45
2019-06-01T15:37:29.472Z,100942.57
2019-06-01T15:39:59.382Z,100946.50
2019-06-01T15:42:29.344Z,100942.12
2019-06-01T15:44:59.337Z,100943.18
2019-06-01T15:47:29.057Z,100927.66
2019-06-01T15:49:59.980Z,100939.80
2019-06-01T15:52:30.147Z,100936.09
2019-06-01T15:55:00.575Z,100932.52
2019-06-01T15:57:30.346Z,100931.48
2019-06-01T16:00:00.657Z,100941.65
2019-06-01T16:02:30.586Z,100945.41
2019-06-01T16:05:01.323Z,100945.59
2019-06-01T16:07:31.262Z,100941.34
2019-06-01T16:10:07.572Z,100945.98
2019-06-01T16:12:32.499Z,100946.02
2019-06-01T16:15:02.367Z,100948.22
2019-06-01T16:17:32.352Z,100950.86
2019-06-01T16:20:02.449Z,100945.16
2019-06-01T16:22:32.443Z,100940.69
2019-06-01T16:25:02.555Z,100939.44
2019-06-01T16:27:32.407Z,100942.84
2019-06-01T16:30:03.880Z,100937.73
2019-06-01T16:32:33.903Z,100929.04
2019-06-01T16:35:05.042Z,100932.65
2019-06-01T16:37:34.986Z,100928.04
2019-06-01T16:40:09.945Z,100933.02
2019-06-01T16:42:36.532Z,100935.92
2019-06-01T16:45:06.895Z,100937.17
2019-06-01T16:47:36.809Z,100941.05
2019-06-01T16:50:07.412Z,100941.09
2019-06-01T16:52:37.267Z,100944.11
2019-06-01T16:55:07.752Z,100932.58
2019-06-01T16:57:38.790Z,100926.74
2019-06-01T17:00:09.671Z,100934.67
2019-06-01T17:02:39.676Z,100933.42
2019-06-01T17:05:10.358Z,100940.88
2019-06-01T17:07:40.141Z,100945.27
2019-06-01T17:10:24.860Z,100953.98
2019-06-01T17:12:43.760Z,100953.77
2019-06-01T17:15:14.447Z,100950.07
2019-06-01T17:17:44.428Z,100941.47
2019-06-01T17:20:47.654Z,100942.37
2019-06-01T17:23:27.923Z,100942.89
2019-06-01T17:25:49.151Z,100939.27
2019-06-01T17:28:19.228Z,100937.95
2019-06-01T17:30:49.306Z,100948.78
2019-06-01T17:33:19.303Z,100951.06
2019-06-01T17:35:49.171Z,100944.40
2019-06-01T17:38:19.032Z,100947.66
2019-06-01T17:40:48.861Z,100948.98
2019-06-01T17:43:18.831Z,100951.84
2019-06-01T17:45:49.008Z,100953.59
2019-06-01T17:48:26.386Z,100970.02
2019-06-01T17:50:50.497Z,100971.19
2019-06-01T17:53:20.290Z,100970.56
2019-06-01T17:55:50.306Z,100971.03
2019-06-01T17:58:20.082Z,100966.08
2019-06-01T18:00:49.988Z,100967.83
2019-06-01T18:03:19.830Z,100970.98
2019-06-01T18:05:49.782Z,100980.11
2019-06-01T18:08:19.619Z,100988.73
2019-06-01T18:10:54.276Z,100991.56
2019-06-01T18:13:21.348Z,100985.09
2019-06-01T18:15:51.424Z,100987.61
2019-06-01T18:18:21.304Z,100979.83
2019-06-01T18:20:51.244Z,100983.81
2019-06-01T18:23:21.104Z,100984.65
2019-06-01T18:25:51.250Z,100982.16
2019-06-01T18:28:21.252Z,100988.47
2019-06-01T18:30:52.065Z,100985.53
2019-06-01T18:33:22.438Z,100984.86
2019-06-01T18:35:52.479Z,100983.84
2019-06-01T18:38:22.544Z,100994.12
2019-06-01T18:41:08.383Z,100995.63
2019-06-01T18:43:24.248Z,101004.05
2019-06-01T18:45:54.069Z,100998.09
2019-06-01T18:48:23.845Z,100996.13
2019-06-01T18:50:53.585Z,100998.02
2019-06-01T18:53:23.711Z,101008.12
2019-06-01T18:55:53.518Z,101011.07
2019-06-01T18:58:23.127Z,101006.31
2019-06-01T19:00:53.323Z,101005.82
2019-06-01T19:03:23.642Z,101006.92
2019-06-01T19:05:53.391Z,101004.65
2019-06-01T19:08:23.206Z,101006.66
2019-06-01T19:10:53.337Z,101008.41
2019-06-01T19:13:23.370Z,101004.87
2019-06-01T19:15:53.179Z,101001.48
2019-06-01T19:18:23.027Z,101003.13
2019-06-01T19:20:52.802Z,101004.50
2019-06-01T19:23:23.043Z,101000.73
2019-06-01T19:25:52.869Z,101001.15
2019-06-01T19:28:22.558Z,101004.05
2019-06-01T19:30:52.690Z,101000.09
2019-06-01T19:33:23.755Z,101007.86
2019-06-01T19:35:54.358Z,101008.70
2019-06-01T19:38:25.256Z,100991.77
2019-06-01T19:40:55.142Z,101013.77
2019-06-01T19:43:24.944Z,101015.70
2019-06-01T19:45:54.747Z,101004.20
2019-06-01T19:48:24.502Z,101026.94
2019-06-01T19:50:55.505Z,101034.66
2019-06-01T19:53:25.297Z,101032.84
2019-06-01T19:55:55.110Z,101029.83
2019-06-01T19:58:24.969Z,101041.98
2019-06-01T20:00:54.642Z,101036.14
2019-06-01T20:03:24.465Z,101034.95
2019-06-01T20:05:55.262Z,101034.65
2019-06-01T20:08:25.037Z,101028.09
2019-06-01T20:10:54.837Z,101033.89
2019-06-01T20:18:01.428Z,101036.42
2019-06-01T20:24:05.244Z,101025.70
2019-06-01T20:26:42.094Z,101018.72
2019-06-01T20:29:08.081Z,101005.42
2019-06-01T20:31:37.911Z,101005.42
2019-06-01T20:34:07.836Z,101009.86
2019-06-01T20:36:37.795Z,101004.62
2019-06-01T20:39:08.856Z,101020.17
2019-06-01T20:41:58.765Z,101022.22
2019-06-01T20:49:28.483Z,101037.72
2019-06-01T20:51:58.382Z,101046.80
2019-06-01T20:54:28.032Z,101046.77
2019-06-01T20:56:57.867Z,101047.38
2019-06-01T20:59:29.049Z,101041.58
2019-06-01T21:01:58.910Z,101053.34
2019-06-01T21:04:28.810Z,101048.33
2019-06-01T21:06:58.687Z,101051.27
2019-06-01T21:09:28.339Z,101046.11
2019-06-01T21:11:58.317Z,101041.51
2019-06-01T21:14:28.102Z,101033.66
2019-06-01T21:16:57.886Z,101044.55
2019-06-01T21:19:27.749Z,101041.28
2019-06-01T21:21:57.608Z,101041.28
2019-06-01T21:24:27.540Z,101049.48
2019-06-01T21:26:57.386Z,101049.38
2019-06-01T21:29:27.158Z,101046.50
2019-06-01T21:31:57.514Z,101035.31
2019-06-01T21:34:27.224Z,101034.25
2019-06-01T21:36:57.144Z,101034.83
2019-06-01T21:39:26.993Z,101038.21
2019-06-01T21:41:56.843Z,101040.52
2019-06-01T21:44:26.778Z,101040.99
2019-06-01T21:46:56.779Z,101056.27
2019-06-01T21:49:26.685Z,101056.27
2019-06-01T21:51:56.539Z,101054.86
2019-06-01T21:54:26.420Z,101054.86
2019-06-01T21:56:56.147Z,101068.52
2019-06-01T21:59:27.179Z,101068.52
2019-06-01T22:01:56.957Z,101060.42
2019-06-01T22:04:27.244Z,101054.32
2019-06-01T22:06:57.055Z,101054.96
2019-06-01T22:09:27.427Z,101047.21
2019-06-01T22:11:57.326Z,101043.25
2019-06-01T22:14:27.758Z,101041.66
2019-06-01T22:16:57.632Z,101039.02
2019-06-01T22:19:28.109Z,101038.06
2019-06-01T22:21:58.033Z,101035.43
2019-06-01T22:24:28.309Z,101033.64
2019-06-01T22:26:58.250Z,101027.73
2019-06-01T22:29:28.577Z,101029.41
2019-06-01T22:31:58.999Z,101018.00
2019-06-01T22:34:29.352Z,101021.30
2019-06-01T22:36:59.225Z,101013.72
2019-06-01T22:39:29.072Z,101015.98
2019-06-01T22:41:58.944Z,101015.91
2019-06-01T22:44:28.920Z,101010.58
2019-06-01T22:46:58.681Z,101007.88
2019-06-01T22:49:28.924Z,101013.09
2019-06-01T22:51:58.664Z,101012.31
2019-06-01T22:54:29.460Z,101018.73
2019-06-01T22:56:59.073Z,101022.91
2019-06-01T22:59:29.030Z,101014.66
2019-06-01T23:01:58.904Z,101018.60
2019-06-01T23:04:29.339Z,101023.58
2019-06-01T23:06:59.195Z,101019.56
2019-06-01T23:09:29.725Z,101022.27
2019-06-01T23:11:59.555Z,101029.45
2019-06-01T23:14:29.542Z,101027.39
2019-06-01T23:16:59.325Z,101025.47
2019-06-01T23:19:29.981Z,101019.98
2019-06-01T23:21:59.812Z,101022.07
2019-06-01T23:24:30.272Z,101026.72
2019-06-01T23:27:00.127Z,101026.14
2019-06-01T23:29:30.291Z,101023.45
2019-06-01T23:31:59.961Z,101017.03
2019-06-01T23:34:30.658Z,101007.68
2019-06-01T23:37:00.531Z,101013.90
2019-06-01T23:39:30.762Z,101015.52
2019-06-01T23:42:00.657Z,101020.97
2019-06-01T23:44:33.274Z,101021.52
2019-06-01T23:47:02.024Z,101023.73
2019-06-01T23:49:31.859Z,101009.39
2019-06-01T23:52:01.735Z,101005.95
2019-06-01T23:54:32.467Z,101007.05
2019-06-01T23:57:02.521Z,101007.69
2019-06-01T23:59:32.584Z,101003.52
